Time;durP1;ratioP1;P1;durP2;ratioP2;P2;SDS_P1;SDS_P2;PMS_P1;PMS_P2;Temp;Humidity;BMP_temperature;BMP_pressure;BME280_temperature;BME280_humidity;BME280_pressure;Samples;Min_cycle;Max_cycle;Signal;HPM_P1;HPM_P2
2023/12/25 00:01:12;;;;;;;3.20;1.80;;;;;;;7.94;100.00;97639.27;103525;1251;96970;-69
2023/12/25 00:03:39;;;;;;;2.20;1.70;;;;;;;7.97;100.00;97655.36;103396;1250;138096;-70
2023/12/25 00:06:16;;;;;;;2.60;1.80;;;;;;;7.99;100.00;97647.23;103469;1256;96446;-69
2023/12/25 00:08:43;;;;;;;2.40;1.60;;;;;;;8.00;100.00;97647.70;103477;1250;108638;-70
2023/12/25 00:11:10;;;;;;;2.90;1.60;;;;;;;8.03;100.00;97643.90;103265;1255;137812;-70
2023/12/25 00:13:38;;;;;;;2.10;1.80;;;;;;;8.05;100.00;97640.26;103511;1250;96537;-69
2023/12/25 00:16:05;;;;;;;2.40;1.60;;;;;;;8.08;100.00;97639.73;103324;1255;138021;-69
2023/12/25 00:18:32;;;;;;;1.50;1.40;;;;;;;8.11;100.00;97640.80;103391;1251;97010;-68
2023/12/25 00:20:58;;;;;;;1.90;1.50;;;;;;;8.13;100.00;97641.68;103332;1256;138138;-69
2023/12/25 00:23:26;;;;;;;1.90;1.70;;;;;;;8.15;100.00;97641.05;103439;1251;107407;-68
2023/12/25 00:25:53;;;;;;;3.20;1.80;;;;;;;8.17;100.00;97637.45;103453;1256;97280;-68
2023/12/25 00:28:20;;;;;;;1.90;1.50;;;;;;;8.19;100.00;97648.73;102598;1251;1139391;-67
2023/12/25 00:30:47;;;;;;;2.00;1.80;;;;;;;8.22;100.00;97661.73;103437;1251;96439;-69
2023/12/25 00:33:14;;;;;;;2.70;1.80;;;;;;;8.23;100.00;97658.36;103370;1256;138901;-70
2023/12/25 00:35:43;;;;;;;2.70;1.90;;;;;;;8.26;100.00;97667.67;103404;1251;106840;-69
2023/12/25 00:38:09;;;;;;;3.20;2.00;;;;;;;8.28;100.00;97664.95;103431;1251;96443;-69
2023/12/25 00:40:36;;;;;;;3.10;1.50;;;;;;;8.31;100.00;97665.14;103283;1254;138336;-70
2023/12/25 00:43:07;;;;;;;2.20;1.80;;;;;;;8.33;100.00;97662.21;103477;1257;97184;-69
2023/12/25 00:45:34;;;;;;;2.80;1.90;;;;;;;8.35;100.00;97665.55;103317;1255;138615;-70
2023/12/25 00:48:01;;;;;;;2.90;2.30;;;;;;;8.38;100.00;97660.36;103414;1255;107623;-69
2023/12/25 00:50:28;;;;;;;1.90;1.70;;;;;;;8.41;100.00;97665.17;103441;1256;97860;-70
2023/12/25 00:52:55;;;;;;;2.40;2.20;;;;;;;8.44;100.00;97664.80;103296;1251;137974;-70
2023/12/25 00:55:22;;;;;;;2.20;1.80;;;;;;;8.47;100.00;97662.39;103418;1256;96486;-67
2023/12/25 00:57:49;;;;;;;3.00;2.20;;;;;;;8.52;100.00;97664.70;103384;1256;138389;-69
2023/12/25 01:00:18;;;;;;;3.20;2.20;;;;;;;8.55;100.00;97663.94;103446;1255;107796;-69
2023/12/25 01:02:45;;;;;;;3.30;2.50;;;;;;;8.58;100.00;97655.62;103488;1256;96759;-69
2023/12/25 01:05:12;;;;;;;2.90;2.10;;;;;;;8.60;100.00;97659.30;103364;1255;137774;-69
2023/12/25 01:07:40;;;;;;;3.10;2.20;;;;;;;8.61;100.00;97674.62;103455;1251;96370;-68
2023/12/25 01:10:08;;;;;;;3.10;2.30;;;;;;;8.63;100.00;97666.40;103306;1250;138065;-68
2023/12/25 01:12:35;;;;;;;3.10;2.30;;;;;;;8.62;100.00;97656.03;103512;1256;106946;-69
2023/12/25 01:15:02;;;;;;;3.10;2.30;;;;;;;8.62;100.00;97649.63;103354;1256;138163;-69
2023/12/25 01:17:29;;;;;;;3.30;2.40;;;;;;;8.63;100.00;97649.59;103435;1251;106608;-68
2023/12/25 01:19:56;;;;;;;2.70;2.10;;;;;;;8.64;100.00;97649.86;103379;1256;96580;-68
2023/12/25 01:22:22;;;;;;;3.20;2.70;;;;;;;8.63;100.00;97653.70;103322;1251;140067;-68
2023/12/25 01:24:49;;;;;;;4.40;2.60;;;;;;;8.62;100.00;97672.33;103471;1251;108147;-69
2023/12/25 01:27:16;;;;;;;3.20;2.50;;;;;;;8.61;100.00;97670.67;103369;1253;138547;-70
2023/12/25 01:29:43;;;;;;;3.60;2.30;;;;;;;8.59;100.00;97659.15;103346;1256;108407;-68
2023/12/25 01:32:10;;;;;;;3.60;2.30;;;;;;;8.59;100.00;97656.20;103446;1254;96338;-68
2023/12/25 01:34:36;;;;;;;2.60;2.20;;;;;;;8.61;100.00;97661.48;103403;1251;138183;-68
2023/12/25 01:37:04;;;;;;;2.80;2.50;;;;;;;8.61;100.00;97658.36;103462;1256;107810;-68
2023/12/25 01:39:31;;;;;;;3.30;2.50;;;;;;;8.60;100.00;97651.82;102620;1257;1002977;-68
2023/12/25 01:41:58;;;;;;;3.60;2.00;;;;;;;8.61;100.00;97660.59;103434;1251;108855;-69
2023/12/25 01:44:25;;;;;;;2.20;1.70;;;;;;;8.62;100.00;97660.05;103442;1257;96440;-68
2023/12/25 01:46:53;;;;;;;5.70;2.00;;;;;;;8.63;100.00;97658.09;103390;1257;137840;-68
2023/12/25 01:49:20;;;;;;;1.80;1.40;;;;;;;8.63;100.00;97650.23;103447;1256;107369;-68
2023/12/25 01:51:47;;;;;;;1.40;1.30;;;;;;;8.66;100.00;97647.98;103406;1255;139480;-68
2023/12/25 01:54:14;;;;;;;1.60;1.00;;;;;;;8.69;100.00;97663.89;103462;1254;108008;-67
2023/12/25 01:56:42;;;;;;;1.80;1.10;;;;;;;8.72;100.00;97664.92;103398;1256;96438;-68
2023/12/25 01:59:09;;;;;;;1.70;0.90;;;;;;;8.74;100.00;97664.60;103313;1256;138000;-68
2023/12/25 02:01:36;;;;;;;1.80;0.90;;;;;;;8.76;100.00;97660.84;103364;1256;107018;-68
2023/12/25 02:04:03;;;;;;;1.30;1.00;;;;;;;8.79;100.00;97648.69;103352;1251;138504;-68
2023/12/25 02:06:30;;;;;;;1.60;0.90;;;;;;;8.80;100.00;97654.69;103377;1257;107689;-68
2023/12/25 02:08:57;;;;;;;1.40;0.80;;;;;;;8.81;100.00;97654.30;103321;1257;138508;-69
2023/12/25 02:11:24;;;;;;;0.50;0.50;;;;;;;8.80;100.00;97649.65;103509;1257;109112;-69
2023/12/25 02:13:55;;;;;;;1.20;0.60;;;;;;;8.77;100.00;97659.86;103406;1251;107715;-69
2023/12/25 02:16:21;;;;;;;1.00;0.60;;;;;;;8.77;100.00;97660.36;103321;1256;137968;-68
2023/12/25 02:18:49;;;;;;;1.70;0.70;;;;;;;8.76;100.00;97673.61;103461;1255;107115;-69
2023/12/25 02:21:16;;;;;;;1.40;0.60;;;;;;;8.74;100.00;97674.66;103289;1257;138233;-70
2023/12/25 02:23:46;;;;;;;1.30;0.50;;;;;;;8.72;100.00;97679.45;103499;1251;109138;-70
2023/12/25 02:26:14;;;;;;;1.10;0.50;;;;;;;8.69;100.00;97673.04;103382;1249;107636;-69
2023/12/25 02:28:41;;;;;;;2.60;0.60;;;;;;;8.66;100.00;97688.16;103330;1256;138224;-69
2023/12/25 02:31:09;;;;;;;2.70;0.60;;;;;;;8.65;100.00;97694.64;103508;1252;108016;-70
2023/12/25 02:33:36;;;;;;;2.40;0.50;;;;;;;8.64;100.00;97709.46;103390;1257;139648;-70
2023/12/25 02:36:03;;;;;;;2.00;0.80;;;;;;;8.63;100.00;97716.25;103412;1256;109925;-68
2023/12/25 02:38:30;;;;;;;1.40;0.70;;;;;;;8.61;100.00;97714.47;103316;1256;107730;-68
2023/12/25 02:40:57;;;;;;;3.40;0.60;;;;;;;8.60;100.00;97720.06;103339;1263;138019;-69
2023/12/25 02:43:23;;;;;;;1.20;0.60;;;;;;;8.58;100.00;97711.71;103400;1251;106943;-68
2023/12/25 02:45:50;;;;;;;1.60;0.90;;;;;;;8.57;100.00;97723.42;103279;1256;139091;-68
2023/12/25 02:48:17;;;;;;;1.40;0.80;;;;;;;8.58;100.00;97727.09;103505;1253;109682;-70
2023/12/25 02:50:44;;;;;;;1.00;0.80;;;;;;;8.62;100.00;97733.67;103440;1260;107776;-70
2023/12/25 02:53:11;;;;;;;1.40;0.80;;;;;;;8.64;100.00;97725.05;103330;1257;138976;-68
2023/12/25 02:55:39;;;;;;;1.80;0.70;;;;;;;8.66;100.00;97736.85;103460;1256;107004;-69
2023/12/25 02:58:06;;;;;;;2.40;0.70;;;;;;;8.68;100.00;97744.02;103290;1255;138127;-69
2023/12/25 03:00:33;;;;;;;3.20;0.90;;;;;;;8.69;100.00;97740.79;103428;1254;109438;-68
2023/12/25 03:03:00;;;;;;;1.50;0.90;;;;;;;8.71;100.00;97746.02;103336;1251;137883;-67
2023/12/25 03:05:26;;;;;;;1.80;0.60;;;;;;;8.71;100.00;97737.52;103432;1254;96352;-68
2023/12/25 03:07:53;;;;;;;2.70;0.70;;;;;;;8.70;100.00;97731.58;103388;1251;108136;-68
2023/12/25 03:10:20;;;;;;;1.10;0.60;;;;;;;8.68;100.00;97735.82;103373;1251;137973;-69
2023/12/25 03:12:47;;;;;;;3.90;0.80;;;;;;;8.67;100.00;97736.92;103445;1256;110611;-69
2023/12/25 03:15:14;;;;;;;0.90;0.50;;;;;;;8.68;100.00;97749.55;103290;1251;138369;-68
2023/12/25 03:17:41;;;;;;;1.70;0.70;;;;;;;8.68;100.00;97745.36;103502;1257;96313;-68
2023/12/25 03:20:10;;;;;;;0.90;0.50;;;;;;;8.68;100.00;97750.39;103391;1256;107227;-68
2023/12/25 03:22:37;;;;;;;1.50;0.50;;;;;;;8.69;100.00;97753.08;103502;1255;137997;-68
2023/12/25 03:25:04;;;;;;;0.90;0.50;;;;;;;8.71;100.00;97760.10;103464;1251;109714;-68
2023/12/25 03:27:30;;;;;;;1.20;0.60;;;;;;;8.72;100.00;97762.98;103293;1256;138320;-68
2023/12/25 03:29:58;;;;;;;1.70;0.70;;;;;;;8.71;100.00;97771.30;103432;1251;96325;-68
2023/12/25 03:32:25;;;;;;;2.00;0.60;;;;;;;8.71;100.00;97768.23;103387;1254;107802;-68
2023/12/25 03:34:52;;;;;;;2.00;0.60;;;;;;;8.73;100.00;97768.26;103292;1254;139006;-69
2023/12/25 03:37:19;;;;;;;2.00;0.80;;;;;;;8.73;100.00;97762.35;103462;1251;109184;-68
2023/12/25 03:39:45;;;;;;;1.50;0.60;;;;;;;8.73;100.00;97766.36;103288;1251;138496;-68
2023/12/25 03:42:12;;;;;;;1.20;0.70;;;;;;;8.73;100.00;97768.95;103571;1254;96897;-68
2023/12/25 03:44:39;;;;;;;1.50;0.50;;;;;;;8.73;100.00;97772.05;103399;1251;107810;-68
2023/12/25 03:47:06;;;;;;;1.50;0.70;;;;;;;8.74;99.92;97773.88;103404;1253;137722;-68
2023/12/25 03:49:33;;;;;;;2.90;0.60;;;;;;;8.75;99.82;97787.55;103458;1251;109902;-69
2023/12/25 03:52:00;;;;;;;1.70;0.80;;;;;;;8.74;99.62;97790.52;103355;1251;137959;-68
2023/12/25 03:54:27;;;;;;;2.00;0.60;;;;;;;8.73;99.46;97794.95;103450;1251;96338;-69
2023/12/25 03:56:54;;;;;;;1.70;0.80;;;;;;;8.73;99.54;97809.86;103411;1252;106966;-68
2023/12/25 03:59:21;;;;;;;1.60;0.60;;;;;;;8.71;99.30;97813.95;103490;1251;96337;-69
2023/12/25 04:01:48;;;;;;;2.40;0.70;;;;;;;8.70;99.41;97819.02;103505;1251;109354;-68
2023/12/25 04:04:15;;;;;;;2.80;0.70;;;;;;;8.72;99.36;97825.69;103322;1251;139944;-69
2023/12/25 04:06:42;;;;;;;1.20;0.70;;;;;;;8.73;99.38;97831.48;103495;1254;97566;-68
2023/12/25 04:09:08;;;;;;;3.70;0.80;;;;;;;8.73;99.25;97832.19;103439;1251;137786;-68
2023/12/25 04:11:35;;;;;;;1.20;0.70;;;;;;;8.72;99.14;97836.21;103476;1251;97425;-68
2023/12/25 04:14:02;;;;;;;2.10;0.70;;;;;;;8.72;98.89;97847.46;103483;1253;109697;-68
2023/12/25 04:16:30;;;;;;;1.80;0.70;;;;;;;8.71;98.62;97846.31;103398;1251;137928;-68
2023/12/25 04:18:57;;;;;;;3.10;0.90;;;;;;;8.68;98.02;97850.35;103486;1251;96351;-69
2023/12/25 04:21:26;;;;;;;1.20;0.80;;;;;;;8.63;97.64;97859.87;103338;1251;137838;-69
2023/12/25 04:23:53;;;;;;;1.10;0.60;;;;;;;8.60;97.99;97867.63;103528;1253;96430;-69
2023/12/25 04:26:20;;;;;;;1.90;0.80;;;;;;;8.58;97.68;97865.01;103498;1256;108822;-68
2023/12/25 04:28:48;;;;;;;4.40;1.00;;;;;;;8.56;97.62;97873.27;103355;1251;138357;-68
2023/12/25 04:31:16;;;;;;;1.80;0.90;;;;;;;8.53;97.44;97866.54;103601;1251;96408;-68
2023/12/25 04:33:43;;;;;;;1.40;0.80;;;;;;;8.53;97.48;97872.07;103413;1251;138875;-68
2023/12/25 04:36:11;;;;;;;3.70;0.90;;;;;;;8.53;97.39;97878.52;103506;1251;96582;-68
2023/12/25 04:38:38;;;;;;;3.60;0.80;;;;;;;8.49;97.53;97883.94;103491;1251;109105;-68
2023/12/25 04:41:06;;;;;;;2.20;0.90;;;;;;;8.45;97.60;97896.27;103366;1251;137892;-68
2023/12/25 04:43:33;;;;;;;2.80;0.80;;;;;;;8.42;97.54;97896.76;103485;1254;96955;-68
2023/12/25 04:46:02;;;;;;;2.60;0.90;;;;;;;8.39;97.52;97900.09;103348;1254;139083;-68
2023/12/25 04:48:30;;;;;;;3.20;0.80;;;;;;;8.36;97.63;97899.38;103392;1251;96482;-68
2023/12/25 04:50:57;;;;;;;4.40;1.10;;;;;;;8.33;97.83;97889.05;103405;1251;137807;-68
2023/12/25 04:53:24;;;;;;;3.30;1.00;;;;;;;8.34;97.88;97887.59;103448;1250;107186;-67
2023/12/25 04:55:51;;;;;;;3.60;0.80;;;;;;;8.34;98.09;97893.13;103534;1253;96455;-67
2023/12/25 04:58:19;;;;;;;2.80;1.10;;;;;;;8.37;98.18;97895.40;103343;1256;137800;-68
2023/12/25 05:00:47;;;;;;;2.60;0.80;;;;;;;8.38;98.20;97890.27;103409;1258;96445;-68
2023/12/25 05:03:13;;;;;;;3.90;0.90;;;;;;;8.41;98.50;97891.83;103471;1254;137824;-68
2023/12/25 05:05:40;;;;;;;1.30;0.80;;;;;;;8.42;98.55;97898.54;103502;1251;107159;-66
2023/12/25 05:08:08;;;;;;;3.10;0.80;;;;;;;8.43;98.70;97901.60;103640;1251;96447;-68
2023/12/25 05:10:35;;;;;;;2.90;0.80;;;;;;;8.47;98.91;97904.13;103321;1251;138281;-67
2023/12/25 05:13:01;;;;;;;2.40;1.20;;;;;;;8.50;98.82;97896.70;103501;1253;96420;-68
2023/12/25 05:15:29;;;;;;;6.10;1.20;;;;;;;8.50;98.62;97894.11;103437;1253;138140;-68
2023/12/25 05:17:55;;;;;;;2.20;0.90;;;;;;;8.50;98.79;97904.31;103447;1253;107675;-68
2023/12/25 05:20:23;;;;;;;3.50;0.90;;;;;;;8.46;98.84;97897.80;103439;1256;96690;-68
2023/12/25 05:22:50;;;;;;;3.00;1.10;;;;;;;8.44;99.09;97893.05;103346;1251;137681;-68
2023/12/25 05:25:17;;;;;;;2.90;0.90;;;;;;;8.43;99.08;97893.08;103472;1251;96324;-68
2023/12/25 05:27:43;;;;;;;3.40;1.10;;;;;;;8.42;99.12;97894.35;103381;1251;138681;-67
2023/12/25 05:30:12;;;;;;;4.60;1.10;;;;;;;8.42;99.30;97904.59;103483;1250;107018;-68
2023/12/25 05:32:39;;;;;;;2.50;0.90;;;;;;;8.43;99.31;97907.13;103885;1251;96456;-68
2023/12/25 05:35:07;;;;;;;3.00;1.00;;;;;;;8.42;99.32;97911.84;103358;1251;137565;-67
2023/12/25 05:37:34;;;;;;;1.70;1.00;;;;;;;8.41;99.31;97910.01;105013;1251;94434;-68
2023/12/25 05:40:02;;;;;;;4.20;0.90;;;;;;;8.41;99.47;97915.02;104929;1250;137750;-68
2023/12/25 05:42:29;;;;;;;3.00;1.30;;;;;;;8.42;99.51;97914.63;103656;1251;107137;-68
2023/12/25 05:44:57;;;;;;;3.60;1.20;;;;;;;8.46;99.66;97919.27;103400;1252;138058;-69
2023/12/25 05:47:24;;;;;;;3.10;1.00;;;;;;;8.49;99.50;97922.71;103432;1249;107961;-68
2023/12/25 05:49:53;;;;;;;1.90;0.80;;;;;;;8.50;99.28;97925.92;103521;1251;96442;-68
2023/12/25 05:52:19;;;;;;;3.20;0.80;;;;;;;8.51;99.03;97928.69;103395;1253;138723;-68
2023/12/25 05:54:46;;;;;;;4.60;1.00;;;;;;;8.47;98.91;97921.61;103481;1249;106616;-68
2023/12/25 05:57:13;;;;;;;2.50;0.90;;;;;;;8.43;99.19;97930.69;103422;1253;138111;-68
2023/12/25 05:59:40;;;;;;;3.10;0.70;;;;;;;8.37;99.05;97924.28;103547;1250;106992;-68
2023/12/25 06:02:08;;;;;;;1.90;0.60;;;;;;;8.34;99.17;97920.33;103432;1251;96449;-68
2023/12/25 06:04:34;;;;;;;2.10;0.70;;;;;;;8.33;99.68;97921.23;103361;1253;137601;-68
2023/12/25 06:07:02;;;;;;;2.00;0.80;;;;;;;8.32;99.99;97930.28;103449;1251;108639;-69
2023/12/25 06:09:29;;;;;;;2.50;0.80;;;;;;;8.33;100.00;97930.05;103455;1251;138067;-68
2023/12/25 06:11:56;;;;;;;2.00;1.00;;;;;;;8.34;100.00;97934.70;103495;1251;107409;-68
2023/12/25 06:14:23;;;;;;;1.10;0.70;;;;;;;8.32;100.00;97912.98;103467;1253;96438;-68
2023/12/25 06:16:49;;;;;;;1.10;0.70;;;;;;;8.29;100.00;97911.91;104413;1254;137813;-68
2023/12/25 06:19:16;;;;;;;1.00;0.80;;;;;;;8.31;100.00;97922.56;103410;1254;106641;-68
2023/12/25 06:21:43;;;;;;;1.70;0.90;;;;;;;8.29;100.00;97929.98;103472;1250;137965;-68
2023/12/25 06:24:10;;;;;;;2.40;0.90;;;;;;;8.29;100.00;97936.74;103489;1253;107451;-68
2023/12/25 06:26:37;;;;;;;3.60;1.10;;;;;;;8.31;100.00;97942.64;103504;1250;96440;-69
2023/12/25 06:29:04;;;;;;;2.70;1.00;;;;;;;8.35;100.00;97954.20;103780;1250;137459;-68
2023/12/25 06:31:31;;;;;;;3.90;1.10;;;;;;;8.37;100.00;97955.12;103459;1249;107047;-68
2023/12/25 06:33:57;;;;;;;2.20;1.00;;;;;;;8.40;100.00;97953.39;103463;1253;137690;-68
2023/12/25 06:36:24;;;;;;;4.50;1.20;;;;;;;8.38;99.98;97957.80;103588;1251;107306;-69
2023/12/25 06:38:51;;;;;;;2.70;0.80;;;;;;;8.39;99.85;97957.77;103513;1249;96521;-68
2023/12/25 06:41:18;;;;;;;2.90;1.00;;;;;;;8.38;99.44;97966.80;103451;1251;109052;-68
2023/12/25 06:43:45;;;;;;;2.60;0.90;;;;;;;8.39;99.37;97969.38;103525;1251;107095;-68
2023/12/25 06:46:13;;;;;;;2.10;0.90;;;;;;;8.37;98.93;97978.15;103553;1251;139033;-68
2023/12/25 06:48:40;;;;;;;3.60;1.00;;;;;;;8.37;98.92;97977.44;103574;1251;107054;-68
2023/12/25 06:51:07;;;;;;;1.50;0.70;;;;;;;8.38;98.68;97980.84;103835;1249;138799;-68
2023/12/25 06:53:34;;;;;;;4.30;0.90;;;;;;;8.40;98.67;97984.16;103979;1253;108826;-68
2023/12/25 06:56:01;;;;;;;4.80;1.40;;;;;;;8.42;98.49;97982.13;103472;1251;107687;-69
2023/12/25 06:58:28;;;;;;;4.00;0.80;;;;;;;8.45;98.05;97987.71;103505;1250;137797;-68
2023/12/25 07:00:55;;;;;;;3.60;1.10;;;;;;;8.48;97.81;97998.13;104436;1250;107363;-67
2023/12/25 07:03:22;;;;;;;1.40;0.90;;;;;;;8.51;97.56;97987.20;103412;1249;138232;-68
2023/12/25 07:05:49;;;;;;;3.30;1.00;;;;;;;8.53;97.48;97974.97;103539;1250;110298;-67
2023/12/25 07:08:17;;;;;;;3.80;1.00;;;;;;;8.58;97.41;97962.52;103543;1250;106831;-68
2023/12/25 07:10:46;;;;;;;4.40;1.20;;;;;;;8.63;97.23;97971.39;103486;1251;138275;-69
2023/12/25 07:13:14;;;;;;;6.60;1.40;;;;;;;8.69;97.15;97964.61;103570;1251;106851;-67
2023/12/25 07:15:40;;;;;;;3.90;1.40;;;;;;;8.70;96.68;97978.59;103442;1253;137213;-66
2023/12/25 07:18:08;;;;;;;1.80;0.90;;;;;;;8.67;96.25;97975.50;103530;1251;110427;-68
2023/12/25 07:20:35;;;;;;;4.00;1.40;;;;;;;8.65;95.97;97978.56;103502;1251;107881;-68
2023/12/25 07:23:02;;;;;;;4.30;1.20;;;;;;;8.62;95.77;97976.16;103448;1249;137899;-68
2023/12/25 07:25:28;;;;;;;5.20;1.30;;;;;;;8.60;95.78;97974.85;103622;1250;107234;-68
2023/12/25 07:27:55;;;;;;;3.20;1.30;;;;;;;8.59;95.78;97980.83;103349;1252;139180;-68
2023/12/25 07:30:23;;;;;;;5.00;1.40;;;;;;;8.59;95.69;97981.36;103568;1251;109062;-68
2023/12/25 07:32:49;;;;;;;3.50;1.30;;;;;;;8.59;95.72;97982.86;103550;1253;108155;-68
2023/12/25 07:35:17;;;;;;;2.90;1.40;;;;;;;8.61;95.72;97985.88;103453;1253;138225;-69
2023/12/25 07:37:44;;;;;;;3.80;1.30;;;;;;;8.65;95.66;97981.35;103584;1253;108010;-69
2023/12/25 07:40:12;;;;;;;2.90;1.30;;;;;;;8.68;95.22;97983.04;103441;1250;137452;-69
2023/12/25 07:42:39;;;;;;;3.50;1.20;;;;;;;8.68;94.82;97979.39;103502;1250;109349;-69
2023/12/25 07:45:08;;;;;;;6.60;1.70;;;;;;;8.66;94.72;97982.16;103412;1251;137682;-68
2023/12/25 07:47:35;;;;;;;6.30;1.60;;;;;;;8.65;94.79;97978.91;105101;1251;94555;-69
2023/12/25 07:50:04;;;;;;;3.00;1.40;;;;;;;8.64;94.49;97981.20;105065;1249;107828;-69
2023/12/25 07:52:31;;;;;;;3.10;1.40;;;;;;;8.64;94.45;97987.09;104006;1250;138627;-68
2023/12/25 07:54:59;;;;;;;3.70;1.60;;;;;;;8.65;94.46;97985.98;103514;1249;109370;-69
2023/12/25 07:57:26;;;;;;;3.10;1.40;;;;;;;8.67;94.37;97980.16;103417;1251;138056;-68
2023/12/25 07:59:52;;;;;;;2.70;1.20;;;;;;;8.71;94.26;97978.39;103497;1253;96971;-68
2023/12/25 08:02:19;;;;;;;3.00;1.30;;;;;;;8.77;94.01;97977.11;103549;1249;105826;-69
2023/12/25 08:04:46;;;;;;;4.30;1.60;;;;;;;8.82;93.75;97982.21;103247;1251;137135;-67
2023/12/25 08:07:13;;;;;;;5.60;1.60;;;;;;;8.85;93.62;97987.92;103371;1255;110241;-67
2023/12/25 08:09:40;;;;;;;4.60;1.50;;;;;;;8.87;93.38;97991.77;102432;1251;1002706;-69
2023/12/25 08:12:08;;;;;;;4.80;1.60;;;;;;;8.83;93.15;97996.31;103406;1251;96553;-68
2023/12/25 08:14:35;;;;;;;5.10;1.30;;;;;;;8.83;93.18;97986.15;103375;1251;107354;-68
2023/12/25 08:17:02;;;;;;;3.30;1.40;;;;;;;8.83;93.06;97997.41;103259;1251;137914;-67
2023/12/25 08:19:28;;;;;;;5.80;1.40;;;;;;;8.84;93.07;97996.10;103373;1251;109440;-69
2023/12/25 08:21:56;;;;;;;3.00;1.10;;;;;;;8.88;93.03;97984.95;103232;1255;137601;-67
2023/12/25 08:24:26;;;;;;;3.50;1.50;;;;;;;8.93;93.28;97987.23;103429;1251;96320;-68
2023/12/25 08:26:53;;;;;;;4.40;1.20;;;;;;;9.00;93.39;97993.73;103363;1251;107955;-67
2023/12/25 08:29:20;;;;;;;6.20;1.60;;;;;;;9.07;93.24;97986.17;103232;1252;96470;-68
2023/12/25 08:31:47;;;;;;;3.70;1.50;;;;;;;9.09;92.89;97987.97;103233;1257;109028;-67
2023/12/25 08:34:14;;;;;;;4.50;1.80;;;;;;;9.11;92.85;97988.00;103212;1257;137999;-68
2023/12/25 08:36:41;;;;;;;3.50;1.50;;;;;;;9.20;92.69;97991.50;103304;1257;96438;-69
2023/12/25 08:39:07;;;;;;;5.30;1.80;;;;;;;9.27;92.27;97995.84;103222;1253;137969;-69
2023/12/25 08:41:34;;;;;;;4.20;1.50;;;;;;;9.36;91.79;98005.70;103350;1251;96429;-67
2023/12/25 08:44:01;;;;;;;3.70;1.80;;;;;;;9.48;91.58;98008.05;103291;1254;110267;-68
2023/12/25 08:46:28;;;;;;;4.60;1.80;;;;;;;9.56;91.28;98014.70;103243;1255;137247;-67
2023/12/25 08:48:55;;;;;;;4.10;1.70;;;;;;;9.60;90.94;98014.05;103397;1252;96624;-68
2023/12/25 08:51:25;;;;;;;5.60;1.70;;;;;;;9.63;90.49;98014.05;103125;1257;137228;-69
2023/12/25 08:53:52;;;;;;;4.20;1.50;;;;;;;9.65;90.46;98013.56;103364;1255;96441;-68
2023/12/25 08:56:26;;;;;;;4.70;1.40;;;;;;;9.69;90.01;98014.01;103427;1255;108575;-68
2023/12/25 08:58:54;;;;;;;4.80;1.90;;;;;;;9.73;89.95;98014.46;103368;1255;137777;-67
2023/12/25 09:01:22;;;;;;;3.20;1.60;;;;;;;9.78;89.67;98017.64;103455;1252;96359;-69
2023/12/25 09:03:49;;;;;;;4.50;1.80;;;;;;;9.81;89.55;98014.96;103356;1255;137656;-67
2023/12/25 09:06:16;;;;;;;4.20;1.50;;;;;;;9.82;88.91;98010.94;103349;1255;96432;-67
2023/12/25 09:08:43;;;;;;;4.50;2.20;;;;;;;9.81;88.71;98003.50;103470;1252;110443;-69
2023/12/25 09:11:19;;;;;;;4.60;1.80;;;;;;;9.75;88.83;98005.66;103234;1254;109700;-67
2023/12/25 09:13:46;;;;;;;6.00;2.00;;;;;;;9.70;88.77;98011.34;103243;1252;96420;-67
2023/12/25 09:16:13;;;;;;;4.40;1.70;;;;;;;9.68;89.07;98007.09;103132;1252;137633;-69
2023/12/25 09:18:40;;;;;;;5.40;1.90;;;;;;;9.71;89.30;98002.11;103253;1252;96438;-68
2023/12/25 09:21:07;;;;;;;4.10;1.60;;;;;;;9.75;89.30;98001.16;103167;1252;137488;-68
2023/12/25 09:23:35;;;;;;;5.40;2.00;;;;;;;9.76;89.08;98003.16;103320;1253;106781;-68
2023/12/25 09:26:04;;;;;;;4.40;1.90;;;;;;;9.77;88.71;98001.55;103287;1252;96939;-67
2023/12/25 09:28:31;;;;;;;4.30;1.60;;;;;;;9.75;88.72;98003.55;103331;1252;138661;-68
2023/12/25 09:30:58;;;;;;;3.20;1.60;;;;;;;9.75;88.38;98003.73;103446;1252;96431;-68
2023/12/25 09:33:25;;;;;;;3.10;1.50;;;;;;;9.72;88.23;98003.42;103329;1256;137258;-68
2023/12/25 09:35:52;;;;;;;3.50;1.50;;;;;;;9.70;88.22;98008.04;103287;1252;106948;-67
2023/12/25 09:38:19;;;;;;;2.20;1.60;;;;;;;9.71;88.26;97996.93;103402;1252;96489;-68
2023/12/25 09:40:46;;;;;;;3.30;1.40;;;;;;;9.72;88.29;97994.08;103276;1252;137918;-68
2023/12/25 09:43:14;;;;;;;4.30;1.60;;;;;;;9.76;88.39;97996.73;103379;1252;97144;-69
2023/12/25 09:45:40;;;;;;;4.20;1.60;;;;;;;9.80;88.49;97987.46;103304;1252;136986;-69
2023/12/25 09:48:08;;;;;;;4.40;1.90;;;;;;;9.87;88.41;97986.11;103344;1255;107908;-68
2023/12/25 09:50:37;;;;;;;8.00;2.00;;;;;;;9.90;87.79;97988.90;103414;1255;96450;-68
2023/12/25 09:53:04;;;;;;;4.70;1.60;;;;;;;9.95;87.68;97982.30;103198;1252;136979;-69
2023/12/25 09:55:31;;;;;;;5.60;2.00;;;;;;;10.04;87.82;97978.02;103317;1252;96441;-68
2023/12/25 09:58:00;;;;;;;5.70;1.80;;;;;;;10.21;87.83;97977.81;103275;1254;137789;-68
2023/12/25 10:00:27;;;;;;;5.30;1.70;;;;;;;10.36;87.60;97975.25;103351;1252;107046;-68
2023/12/25 10:02:56;;;;;;;5.20;1.60;;;;;;;10.55;86.92;97972.55;103578;1252;96465;-68
2023/12/25 10:05:23;;;;;;;3.40;1.60;;;;;;;10.70;85.93;97972.44;104013;1252;107050;-69
2023/12/25 10:07:50;;;;;;;5.90;2.30;;;;;;;10.82;85.64;97979.55;103379;1255;96487;-69
2023/12/25 10:10:17;;;;;;;4.50;1.80;;;;;;;10.84;84.71;97981.00;103299;1255;137270;-68
2023/12/25 10:12:47;;;;;;;4.40;1.90;;;;;;;10.79;84.11;97979.75;103375;1252;108038;-68
2023/12/25 10:15:15;;;;;;;5.70;1.60;;;;;;;10.70;84.05;97981.61;103270;1257;137490;-68
2023/12/25 10:17:42;;;;;;;3.80;1.70;;;;;;;10.59;83.59;97979.58;103330;1255;107810;-68
2023/12/25 10:20:18;;;;;;;4.80;1.60;;;;;;;10.51;83.81;97980.45;104251;1252;95008;-67
2023/12/25 10:22:45;;;;;;;3.70;1.70;;;;;;;10.43;83.50;97994.21;104682;1251;138186;-69
2023/12/25 10:25:13;;;;;;;4.70;1.70;;;;;;;10.36;83.53;97991.75;104812;1251;108367;-66
2023/12/25 10:27:42;;;;;;;3.20;1.50;;;;;;;10.30;83.55;97993.89;104725;1252;137605;-69
2023/12/25 10:30:18;;;;;;;3.30;1.50;;;;;;;10.24;83.22;97995.17;103412;1252;107862;-67
2023/12/25 10:32:46;;;;;;;3.70;1.70;;;;;;;10.17;83.42;97995.44;103405;1252;96388;-68
2023/12/25 10:35:15;;;;;;;5.80;1.90;;;;;;;10.11;83.91;97991.12;103614;1253;136931;-68
2023/12/25 10:37:43;;;;;;;10.10;1.90;;;;;;;10.07;83.70;97987.04;104747;1252;107702;-67
2023/12/25 10:40:26;;;;;;;6.70;2.00;;;;;;;9.99;83.36;97987.77;104746;1252;138517;-68
2023/12/25 10:42:54;;;;;;;4.00;1.60;;;;;;;9.92;83.75;97981.98;103366;1252;108097;-68
2023/12/25 10:45:23;;;;;;;4.40;1.60;;;;;;;9.88;83.86;97982.41;103268;1252;138971;-68
2023/12/25 10:47:51;;;;;;;6.20;1.90;;;;;;;9.89;84.04;97991.20;103394;1256;109480;-67
2023/12/25 10:50:21;;;;;;;5.10;1.90;;;;;;;9.92;84.38;97989.96;104772;1252;108518;-68
2023/12/25 10:52:50;;;;;;;3.30;1.70;;;;;;;9.96;84.75;97983.47;103383;1255;137777;-68
2023/12/25 10:55:24;;;;;;;4.10;1.90;;;;;;;10.01;84.72;97984.30;104795;1251;107250;-68
2023/12/25 10:57:54;;;;;;;5.80;2.00;;;;;;;10.10;84.96;97977.63;103988;1252;137816;-68
2023/12/25 11:00:30;;;;;;;5.40;1.90;;;;;;;10.16;84.15;97975.67;103365;1252;110893;-68
2023/12/25 11:02:58;;;;;;;5.00;1.90;;;;;;;10.21;84.23;97983.00;103303;1252;107562;-68
2023/12/25 11:05:26;;;;;;;4.90;2.30;;;;;;;10.42;84.40;97978.46;103412;1255;96452;-68
2023/12/25 11:07:54;;;;;;;3.90;1.70;;;;;;;10.82;83.18;97975.89;103309;1252;107813;-69
2023/12/25 11:10:21;;;;;;;4.20;1.50;;;;;;;11.25;82.23;97967.66;103255;1255;139020;-68
2023/12/25 11:12:50;;;;;;;5.30;2.00;;;;;;;11.59;80.53;97968.69;103417;1253;110232;-68
2023/12/25 11:15:17;;;;;;;4.90;1.80;;;;;;;11.76;79.81;97970.94;103263;1258;138495;-67
2023/12/25 11:17:44;;;;;;;4.80;1.90;;;;;;;11.80;78.69;97979.73;103315;1257;96325;-68
2023/12/25 11:20:13;;;;;;;6.20;2.10;;;;;;;11.67;78.45;97978.73;103371;1252;107387;-68
2023/12/25 11:22:44;;;;;;;5.50;2.00;;;;;;;11.51;78.04;97972.09;104295;1252;137637;-69
2023/12/25 11:25:16;;;;;;;5.60;1.80;;;;;;;11.30;78.56;97981.02;103847;1252;110619;-68